Архив погоды в Свободном

Метеограмма Свободный
Вторник, 18 Июня
Время местн. Темп Ветер Видим Явления Облачность нижн/средн/верх Атм. давл. Влжн Точка росы ВНГО R Сост. почвы Tg s
Напр Скр Прв ур.ст ур.м изм
00:00 - +12.7° С-З 2 - - - - 739 757 +0.1 74% +8.1° - - - - -
Понедельник, 17 Июня
Время местн. Темп Ветер Видим Явления Облачность нижн/средн/верх Атм. давл. Влжн Точка росы ВНГО R Сост. почвы Tg s
Напр Скр Прв ур.ст ур.м изм
21:00 +18.1° З,С-З 2 - 50 км - переменная облачность 739 756 +0.8 55% +8.8° 1.5 км 0 - - -
18:00 - +22.8° С,С-В 3 - - - - 738 755 -0.2 34% +6° - - - - -
15:00 - +22.2° В 1 - - - - 739 756 -0.4 36% +6.6° - - - - -
12:00 - +22.6° С,С-В 2 - - - - 739 756 -0.2 32% +5.2° - - - - -
09:00 +19.8° С,С-В 1 - более 50 км - ясно 739 756 +0.2 52% +9.6° более 2.5 км 0.5 Сухая (без трещин) +13° -
03:00 - +12° Ю 1 - - - - 738 756 -0.2 91% +10.6° - - - - -
00:00 - +14.5° В 1 - - - - 739 756 -0.2 70% +9.1° - - - - -
Воскресенье, 16 Июня
Время местн. Темп Ветер Видим Явления Облачность нижн/средн/верх Атм. давл. Влжн Точка росы ВНГО R Сост. почвы Tg s
Напр Скр Прв ур.ст ур.м изм
21:00 +15.7° штиль 0 - более 50 км - облачно 739 756 -0.1 57% +7.2° 1 км 0 - - -
18:00 - +20.2° Ю 2 - - - - 739 756 -1.4 35% +4.4° - - - - -
15:00 - +22° Ю,Ю-В 2 - - - - 740 757 -1.3 30% +3.6° - - - - -
12:00 - +21.4° Ю-В 2 - - - - 742 759 -1.3 30% +3.2° - - - - -
09:00 +21° З,Ю-З 1 - более 50 км - переменная облачность 743 760 -0.5 35% +4.8° более 2.5 км 0 Сухая (без трещин) +4° -
06:00 - +6.8° С-З 1 - - - - 744 762 +0.2 87% +4.8° - - - - -
03:00 - +4.7° З,С-З 1 - - - - 743 762 -0.2 94% +3.8° - - - - -
00:00 - +6.8° штиль 0 - - - - 744 762 +0.3 92% +5.6° - - - - -
Суббота, 15 Июня
Время местн. Темп Ветер Видим Явления Облачность нижн/средн/верх Атм. давл. Влжн Точка росы ВНГО R Сост. почвы Tg s
Напр Скр Прв ур.ст ур.м изм
21:00 +12.2° Ю-З 1 - более 50 км - ясно 743 761 +0.3 75% +7.9° более 2.5 км 0 - - -
18:00 - +20.5° В 1 - - - - 743 760 -0.5 33% +3.9° - - - - -
15:00 - +21.1° В,Ю-В 2 - - - - 744 761 0 30% +2.7° - - - - -
12:00 - +19° С,С-В 2 - - - - 745 762 0 31% +1.3° - - - - -
09:00 +11.2° штиль 0 - 50 км - ясно 746 756 +0.5 57% +3° более 2.5 км 0 Влажная (без луж) - -
06:00 - +7.4° штиль 0 - - - - 745 763 +0.9 65% +1.2° - - - - -
03:00 - +4.4° С 1 - - - - 744 763 +0.6 77% +0.8° - - - - -
00:00 - +7° С-З 1 - - - - 744 762 +1 72% +2.4° - - - - -
Пятница, 14 Июня
Время местн. Темп Ветер Видим Явления Облачность нижн/средн/верх Атм. давл. Влжн Точка росы ВНГО R Сост. почвы Tg s
Напр Скр Прв ур.ст ур.м изм
21:00 +13.7° С,С-В 2 - более 50 км - ясно 743 760 +1.6 49% +3.1° более 2.5 км 0 - - -
18:00 - +18.2° С-В 2 - - - - 741 758 +0.4 44% +5.9° - - - - -